Time;durP1;ratioP1;P1;durP2;ratioP2;P2;SDS_P1;SDS_P2;PMS_P1;PMS_P2;Temp;Humidity;BMP_temperature;BMP_pressure;BME280_temperature;BME280_humidity;BME280_pressure;Samples;Min_cycle;Max_cycle;Signal;HPM_P1;HPM_P2
2022/11/09 00:00:43;;;;;;;10.25;3.15;;;12.70;99.90;;;;;;5075387;28;20400;-68
2022/11/09 00:03:09;;;;;;;7.25;2.95;;;12.80;99.90;;;;;;5075747;28;20024;-69
2022/11/09 00:05:35;;;;;;;8.27;3.40;;;12.80;99.90;;;;;;5075223;28;20036;-69
2022/11/09 00:08:03;;;;;;;12.52;2.88;;;12.80;99.90;;;;;;5075524;28;20044;-69
2022/11/09 00:10:29;;;;;;;10.48;3.15;;;12.90;99.90;;;;;;5075196;28;20020;-69
2022/11/09 00:12:54;;;;;;;13.40;3.90;;;12.90;99.90;;;;;;5075700;28;20024;-69
2022/11/09 00:15:20;;;;;;;6.97;3.17;;;13.00;99.90;;;;;;5074811;28;20031;-69
2022/11/09 00:17:45;;;;;;;9.48;2.78;;;13.00;99.90;;;;;;5075310;28;20491;-69
2022/11/09 00:20:11;;;;;;;19.70;3.55;;;13.10;99.90;;;;;;5075644;28;20035;-69
2022/11/09 00:22:37;;;;;;;7.20;3.00;;;13.00;99.90;;;;;;5075094;28;20029;-69
2022/11/09 00:25:02;;;;;;;12.73;3.15;;;13.00;99.90;;;;;;5074811;28;20032;-69
2022/11/09 00:27:28;;;;;;;15.90;2.90;;;13.10;99.90;;;;;;5075153;28;20027;-69
2022/11/09 00:29:53;;;;;;;17.95;3.45;;;13.00;99.90;;;;;;5075450;28;20028;-69
2022/11/09 00:32:19;;;;;;;14.18;3.00;;;13.00;99.90;;;;;;5075103;28;20059;-69
2022/11/09 00:34:45;;;;;;;11.05;3.00;;;12.90;99.90;;;;;;5074649;28;20485;-68
2022/11/09 00:37:10;;;;;;;10.23;2.95;;;12.90;99.90;;;;;;5057011;28;20020;-69
2022/11/09 00:39:36;;;;;;;11.10;3.40;;;12.80;99.90;;;;;;5074853;28;20033;-69
2022/11/09 00:42:01;;;;;;;28.10;3.53;;;12.80;99.90;;;;;;5075661;28;20033;-69
2022/11/09 00:44:27;;;;;;;10.90;3.45;;;12.80;99.90;;;;;;5074786;28;20063;-68
2022/11/09 00:46:52;;;;;;;19.27;3.95;;;12.70;99.90;;;;;;5076147;28;20024;-69
2022/11/09 00:49:18;;;;;;;17.25;3.33;;;12.70;99.90;;;;;;5070206;28;20021;-68
2022/11/09 00:51:43;;;;;;;16.38;3.80;;;12.70;99.90;;;;;;5054594;28;20099;-68
2022/11/09 00:54:09;;;;;;;13.57;4.03;;;12.70;99.90;;;;;;5055266;28;20106;-69
2022/11/09 00:56:34;;;;;;;13.55;3.30;;;12.70;99.90;;;;;;5054892;28;20028;-69
2022/11/09 00:59:00;;;;;;;18.83;4.93;;;12.60;99.90;;;;;;5054870;28;20025;-69
2022/11/09 01:01:26;;;;;;;16.27;3.72;;;12.60;99.90;;;;;;5053870;28;20038;-69
2022/11/09 01:03:51;;;;;;;12.57;3.55;;;12.60;99.90;;;;;;5054788;28;20021;-69
2022/11/09 01:06:20;;;;;;;22.17;4.00;;;12.60;99.90;;;;;;5060134;28;20107;-68
2022/11/09 01:08:47;;;;;;;21.20;5.57;;;12.70;99.90;;;;;;5056438;28;20071;-69
2022/11/09 01:11:13;;;;;;;14.45;3.72;;;12.70;99.90;;;;;;5074230;28;20116;-69
2022/11/09 01:13:38;;;;;;;13.60;3.53;;;12.70;99.90;;;;;;5073856;28;20024;-69
2022/11/09 01:16:07;;;;;;;18.23;2.85;;;12.70;99.90;;;;;;5074627;28;20031;-69
2022/11/09 01:18:32;;;;;;;13.30;2.92;;;12.60;99.90;;;;;;5073307;28;20498;-69
2022/11/09 01:20:58;;;;;;;18.77;3.05;;;12.70;99.90;;;;;;5073359;28;20112;-69
2022/11/09 01:23:24;;;;;;;17.75;3.33;;;12.60;99.90;;;;;;5074073;28;20140;-69
2022/11/09 01:25:57;;;;;;;22.38;3.28;;;12.60;99.90;;;;;;5073992;28;20020;-69
2022/11/09 01:28:22;;;;;;;9.32;2.78;;;12.60;99.90;;;;;;5074278;28;20032;-69
2022/11/09 01:30:48;;;;;;;15.73;3.10;;;12.60;99.90;;;;;;5073454;28;20480;-68
2022/11/09 01:33:13;;;;;;;13.00;2.92;;;12.60;99.90;;;;;;5073908;28;20027;-69
2022/11/09 01:35:39;;;;;;;17.83;3.38;;;12.60;99.90;;;;;;5073667;28;20039;-69
2022/11/09 01:38:06;;;;;;;11.05;3.67;;;12.50;99.90;;;;;;5073749;28;20017;-69
2022/11/09 01:40:33;;;;;;;11.38;2.85;;;12.50;99.90;;;;;;5073766;28;20048;-69
2022/11/09 01:43:04;;;;;;;14.25;3.03;;;12.50;99.90;;;;;;5073865;28;20032;-69
2022/11/09 01:45:30;;;;;;;13.98;2.85;;;12.50;99.90;;;;;;5073443;28;20033;-69
2022/11/09 01:48:14;;;;;;;11.50;3.50;;;12.50;99.90;;;;;;5073329;28;20024;-69
2022/11/09 01:50:46;;;;;;;12.68;3.15;;;12.60;99.90;;;;;;5073477;28;20035;-69
2022/11/09 01:53:17;;;;;;;20.92;2.55;;;12.60;99.90;;;;;;5074020;28;20051;-69
2022/11/09 01:55:45;;;;;;;12.40;3.00;;;12.70;99.90;;;;;;5073762;28;20021;-69
2022/11/09 01:58:27;;;;;;;11.07;2.63;;;12.60;99.90;;;;;;5072828;28;20028;-69
2022/11/09 02:00:54;;;;;;;7.07;2.38;;;12.60;99.90;;;;;;5073590;28;20073;-69
2022/11/09 02:03:25;;;;;;;11.85;3.35;;;12.60;99.90;;;;;;5073400;28;20024;-69
2022/11/09 02:05:51;;;;;;;12.00;3.25;;;12.60;99.90;;;;;;5073696;28;20025;-69
2022/11/09 02:08:19;;;;;;;14.75;3.47;;;12.70;99.90;;;;;;5073328;28;20107;-68
2022/11/09 02:11:10;;;;;;;21.35;2.72;;;12.70;99.90;;;;;;5073328;28;20111;-69
2022/11/09 02:13:43;;;;;;;12.65;2.78;;;12.60;99.90;;;;;;5061304;28;20101;-68
2022/11/09 02:16:10;;;;;;;13.45;3.42;;;12.60;99.90;;;;;;5073597;28;20089;-69
2022/11/09 02:18:43;;;;;;;8.68;2.80;;;12.70;99.90;;;;;;5073193;28;20515;-69
2022/11/09 02:21:09;;;;;;;11.32;3.72;;;12.70;99.90;;;;;;5073280;28;20035;-69
2022/11/09 02:23:34;;;;;;;28.42;3.67;;;12.70;99.90;;;;;;5073189;28;20036;-69
2022/11/09 02:26:05;;;;;;;13.45;3.35;;;12.60;99.90;;;;;;5072827;28;20030;-69
2022/11/09 02:28:31;;;;;;;11.10;3.58;;;12.60;99.90;;;;;;5072845;28;20032;-69
2022/11/09 02:30:57;;;;;;;13.77;3.17;;;12.60;99.90;;;;;;5072773;28;20028;-69
2022/11/09 02:33:23;;;;;;;10.90;3.17;;;12.60;99.90;;;;;;5073603;28;20035;-69
2022/11/09 02:35:49;;;;;;;14.50;3.47;;;12.50;99.90;;;;;;5072487;28;20099;-68
2022/11/09 02:38:15;;;;;;;9.80;3.33;;;12.60;99.90;;;;;;5073087;28;20025;-69
2022/11/09 02:40:45;;;;;;;9.45;2.92;;;12.50;99.90;;;;;;5073094;28;20036;-69
2022/11/09 02:43:13;;;;;;;10.10;2.85;;;12.50;99.90;;;;;;5073025;28;20032;-69
2022/11/09 02:45:39;;;;;;;15.23;4.25;;;12.50;99.90;;;;;;5072390;28;20020;-69
2022/11/09 02:48:05;;;;;;;9.43;3.33;;;12.50;99.90;;;;;;5073241;28;20062;-69
2022/11/09 02:50:31;;;;;;;15.68;3.53;;;12.50;99.90;;;;;;5055041;28;20426;-69
2022/11/09 02:52:56;;;;;;;7.53;2.80;;;12.50;99.90;;;;;;5072912;28;20020;-69
2022/11/09 02:55:22;;;;;;;11.55;4.10;;;12.60;99.90;;;;;;5072411;28;20025;-68
2022/11/09 02:57:47;;;;;;;15.88;3.83;;;12.50;99.90;;;;;;5072860;28;20472;-69
2022/11/09 03:00:13;;;;;;;9.88;3.17;;;12.50;99.90;;;;;;5073185;28;20048;-69
2022/11/09 03:02:39;;;;;;;6.60;2.67;;;12.50;99.90;;;;;;5072790;28;20037;-69
2022/11/09 03:05:05;;;;;;;9.73;3.03;;;12.50;99.90;;;;;;5073015;28;20037;-69
2022/11/09 03:07:31;;;;;;;9.88;3.67;;;12.60;99.90;;;;;;5072574;28;20055;-69
2022/11/09 03:09:57;;;;;;;15.10;3.80;;;12.60;99.90;;;;;;5072873;28;20024;-69
2022/11/09 03:12:28;;;;;;;8.68;3.53;;;12.60;99.90;;;;;;5073151;28;20052;-69
2022/11/09 03:14:58;;;;;;;17.33;3.40;;;12.60;99.90;;;;;;5072761;28;20024;-69
2022/11/09 03:17:24;;;;;;;13.50;3.60;;;12.60;99.90;;;;;;5072851;28;20051;-69
2022/11/09 03:19:50;;;;;;;12.55;3.63;;;12.60;99.90;;;;;;5054035;28;20020;-69
2022/11/09 03:22:16;;;;;;;14.75;3.78;;;12.70;99.90;;;;;;5072873;28;20420;-69
2022/11/09 03:24:41;;;;;;;16.17;3.90;;;12.70;99.90;;;;;;5072842;28;20025;-69
2022/11/09 03:27:07;;;;;;;7.78;2.88;;;12.70;99.90;;;;;;5072595;28;20031;-69
2022/11/09 03:29:32;;;;;;;9.40;2.50;;;12.60;99.90;;;;;;5072229;28;20021;-69
2022/11/09 03:31:58;;;;;;;7.50;2.90;;;12.60;99.90;;;;;;5072922;28;20024;-69
2022/11/09 03:34:23;;;;;;;15.25;3.65;;;12.50;99.90;;;;;;5072484;28;20033;-69
2022/11/09 03:36:49;;;;;;;9.05;3.88;;;12.50;99.90;;;;;;5072724;28;20444;-69
2022/11/09 03:39:14;;;;;;;12.20;2.85;;;12.50;99.90;;;;;;5072985;28;20074;-69
2022/11/09 03:41:40;;;;;;;11.05;3.30;;;12.40;99.90;;;;;;5074416;28;20093;-69
2022/11/09 03:44:05;;;;;;;16.92;3.70;;;12.40;99.90;;;;;;5075653;28;20086;-69
2022/11/09 03:46:31;;;;;;;6.50;3.70;;;12.30;99.90;;;;;;5075965;28;20100;-69
2022/11/09 03:48:56;;;;;;;7.55;3.33;;;12.40;99.90;;;;;;5076439;28;20456;-69
2022/11/09 03:51:22;;;;;;;14.55;3.78;;;12.40;99.90;;;;;;5075774;28;20036;-69
2022/11/09 03:53:47;;;;;;;13.15;3.85;;;12.50;99.90;;;;;;5075860;28;20028;-69
2022/11/09 03:56:13;;;;;;;9.75;3.72;;;12.50;99.90;;;;;;5076330;28;20100;-69
2022/11/09 03:58:39;;;;;;;19.58;3.80;;;12.50;99.90;;;;;;5075233;28;20047;-68
2022/11/09 04:01:04;;;;;;;13.45;3.42;;;12.60;99.90;;;;;;5075844;28;20480;-69
2022/11/09 04:03:30;;;;;;;13.77;3.97;;;12.60;99.90;;;;;;5075899;28;20036;-68
2022/11/09 04:05:57;;;;;;;12.60;3.35;;;12.70;99.90;;;;;;5075830;28;20036;-69
2022/11/09 04:08:23;;;;;;;12.32;3.67;;;12.70;99.90;;;;;;5075115;28;20433;-68
2022/11/09 04:10:48;;;;;;;9.25;3.22;;;12.80;99.90;;;;;;5075346;28;20107;-69
2022/11/09 04:13:14;;;;;;;15.27;3.63;;;12.80;99.90;;;;;;5076010;28;20107;-69
2022/11/09 04:15:39;;;;;;;12.15;2.83;;;12.80;99.90;;;;;;5063863;28;20029;-68
2022/11/09 04:18:05;;;;;;;13.60;2.80;;;12.80;99.90;;;;;;5055388;28;20033;-69
2022/11/09 04:20:31;;;;;;;14.13;3.53;;;12.80;99.90;;;;;;5059050;28;20032;-68
2022/11/09 04:23:02;;;;;;;15.02;3.58;;;12.80;99.90;;;;;;5075047;28;20024;-68
2022/11/09 04:25:34;;;;;;;12.85;3.20;;;12.80;99.90;;;;;;5048671;28;20380;-69
2022/11/09 04:28:00;;;;;;;12.52;3.67;;;12.80;99.90;;;;;;5075709;28;20029;-69
2022/11/09 04:30:30;;;;;;;13.75;2.95;;;12.80;99.90;;;;;;5074282;28;20511;-69
2022/11/09 04:32:57;;;;;;;14.23;3.92;;;12.80;99.90;;;;;;5075086;28;20099;-69
2022/11/09 04:35:25;;;;;;;16.15;2.97;;;12.80;99.90;;;;;;5075068;28;20066;-68
2022/11/09 04:38:04;;;;;;;11.48;3.85;;;12.80;99.90;;;;;;5074896;28;20028;-68
2022/11/09 04:40:32;;;;;;;16.75;3.72;;;12.80;99.90;;;;;;5074949;28;20384;-69
2022/11/09 04:43:02;;;;;;;13.95;3.70;;;12.90;99.90;;;;;;5074969;28;20068;-69
2022/11/09 04:45:27;;;;;;;22.38;3.88;;;12.90;99.90;;;;;;5074419;28;20025;-68
2022/11/09 04:47:57;;;;;;;12.27;3.85;;;12.80;99.90;;;;;;5075116;28;20035;-69
2022/11/09 04:50:23;;;;;;;10.93;2.65;;;12.80;99.90;;;;;;5074692;28;20020;-69
2022/11/09 04:52:49;;;;;;;19.30;4.28;;;12.90;99.90;;;;;;5073903;28;20111;-68
2022/11/09 04:55:15;;;;;;;17.58;3.60;;;12.80;99.90;;;;;;5074408;28;20056;-69
2022/11/09 04:57:40;;;;;;;6.63;2.92;;;12.80;99.90;;;;;;5074604;28;20036;-69
2022/11/09 05:00:06;;;;;;;12.88;3.22;;;12.80;99.90;;;;;;5074580;28;20446;-68
2022/11/09 05:02:32;;;;;;;10.52;2.80;;;12.80;99.90;;;;;;5074275;28;20035;-69
2022/11/09 05:04:57;;;;;;;12.10;3.10;;;12.80;99.90;;;;;;5074505;28;20020;-69
2022/11/09 05:07:23;;;;;;;16.50;3.30;;;12.70;99.90;;;;;;5074622;28;20507;-69
2022/11/09 05:09:48;;;;;;;11.02;3.47;;;12.70;99.90;;;;;;5074130;28;20033;-68
2022/11/09 05:12:14;;;;;;;10.02;3.53;;;12.60;99.90;;;;;;5074200;28;20027;-69
2022/11/09 05:14:39;;;;;;;9.02;3.13;;;12.50;99.90;;;;;;5074318;28;20024;-69
2022/11/09 05:17:05;;;;;;;11.43;3.20;;;12.50;99.90;;;;;;5058717;28;20035;-69
2022/11/09 05:19:31;;;;;;;15.95;3.72;;;12.50;99.90;;;;;;5054321;28;20046;-69
2022/11/09 05:23:57;;;;;;;14.02;3.58;;;12.40;99.90;;;;;;5053614;28;20029;-69
2022/11/09 05:24:42;;;;;;;14.15;2.90;;;12.40;99.90;;;;;;5053625;28;20024;-69
2022/11/09 05:27:07;;;;;;;12.75;3.10;;;12.30;99.90;;;;;;5067756;28;20050;-68
2022/11/09 05:29:33;;;;;;;18.88;4.15;;;12.30;99.90;;;;;;5074318;28;20025;-69
2022/11/09 05:31:58;;;;;;;14.75;3.00;;;12.40;99.90;;;;;;5074122;28;20043;-69
2022/11/09 05:34:24;;;;;;;20.15;3.67;;;12.40;99.90;;;;;;5073633;28;20024;-68
2022/11/09 05:36:49;;;;;;;10.65;3.45;;;12.30;99.90;;;;;;5074449;28;20025;-69
2022/11/09 05:39:15;;;;;;;14.45;3.50;;;12.20;99.90;;;;;;5074196;28;20043;-69
2022/11/09 05:41:40;;;;;;;16.70;3.85;;;12.20;99.90;;;;;;5073746;28;20036;-68
2022/11/09 05:44:06;;;;;;;13.77;2.80;;;12.30;99.90;;;;;;5073106;28;20025;-69
2022/11/09 05:46:32;;;;;;;10.07;2.83;;;12.40;99.90;;;;;;5073770;28;20017;-69
2022/11/09 05:48:58;;;;;;;15.23;3.05;;;12.50;99.90;;;;;;5073596;28;20040;-69
2022/11/09 05:51:24;;;;;;;16.88;3.20;;;12.50;99.90;;;;;;5073824;28;20102;-69
2022/11/09 05:53:49;;;;;;;19.90;4.18;;;12.50;99.90;;;;;;5073426;28;20428;-69
2022/11/09 05:56:15;;;;;;;16.45;3.97;;;12.50;99.90;;;;;;5073111;28;20199;-69
2022/11/09 05:58:41;;;;;;;11.43;3.25;;;12.40;99.90;;;;;;5073534;28;20035;-69
2022/11/09 06:01:09;;;;;;;20.00;3.72;;;12.30;99.90;;;;;;5073300;28;20426;-69
2022/11/09 06:03:35;;;;;;;13.65;3.85;;;12.40;99.90;;;;;;5073192;28;20112;-69
2022/11/09 06:06:04;;;;;;;16.92;3.20;;;12.40;99.90;;;;;;5073724;28;20027;-69
2022/11/09 06:08:30;;;;;;;12.88;4.03;;;12.40;99.90;;;;;;5072875;28;20020;-69
2022/11/09 06:11:00;;;;;;;9.50;3.33;;;12.30;99.90;;;;;;5073359;28;20028;-69
2022/11/09 06:13:26;;;;;;;16.58;3.55;;;12.20;99.90;;;;;;5073250;28;20012;-69
2022/11/09 06:15:53;;;;;;;10.55;3.30;;;12.20;99.90;;;;;;5073405;28;20063;-69
2022/11/09 06:18:19;;;;;;;18.48;4.32;;;12.10;99.90;;;;;;5073085;28;20028;-69
2022/11/09 06:20:44;;;;;;;7.65;2.38;;;12.10;99.90;;;;;;5073594;28;20024;-69
2022/11/09 06:23:11;;;;;;;12.73;3.80;;;12.00;99.90;;;;;;5073263;28;20063;-69
2022/11/09 06:25:36;;;;;;;16.85;4.28;;;11.90;99.90;;;;;;5072825;28;20396;-69
2022/11/09 06:28:02;;;;;;;14.85;3.78;;;11.90;99.90;;;;;;5073525;28;20036;-69
2022/11/09 06:30:28;;;;;;;11.25;3.47;;;11.80;99.90;;;;;;5072959;28;20372;-69
2022/11/09 06:33:00;;;;;;;21.42;3.75;;;11.70;99.90;;;;;;5073750;28;20029;-69
2022/11/09 06:35:26;;;;;;;16.60;3.85;;;11.60;99.90;;;;;;5072536;28;20035;-69
2022/11/09 06:37:58;;;;;;;7.53;2.88;;;11.70;99.90;;;;;;5073431;28;20016;-69
2022/11/09 06:40:24;;;;;;;16.25;3.58;;;11.70;99.90;;;;;;5072940;28;20036;-69
2022/11/09 06:42:50;;;;;;;19.92;4.07;;;11.70;99.90;;;;;;5073131;28;20107;-69
2022/11/09 06:45:15;;;;;;;21.33;3.83;;;11.60;99.90;;;;;;5072543;28;20116;-69
2022/11/09 06:47:41;;;;;;;18.73;3.55;;;11.60;99.90;;;;;;5073602;28;20036;-69
2022/11/09 06:50:08;;;;;;;17.40;3.65;;;11.60;99.90;;;;;;5072721;28;20059;-69
2022/11/09 06:52:34;;;;;;;12.90;4.43;;;11.60;99.90;;;;;;5073296;28;20438;-69
2022/11/09 06:54:59;;;;;;;20.23;4.38;;;11.60;99.90;;;;;;5072971;28;20025;-69
2022/11/09 06:57:28;;;;;;;21.77;4.68;;;11.70;99.90;;;;;;5072531;28;20032;-69
2022/11/09 06:59:54;;;;;;;19.27;4.13;;;11.60;99.90;;;;;;5072864;28;20036;-69
2022/11/09 07:02:21;;;;;;;16.27;3.72;;;11.60;99.90;;;;;;5072878;28;20016;-69
2022/11/09 07:04:50;;;;;;;15.60;4.45;;;11.70;99.90;;;;;;5073106;28;20025;-69
2022/11/09 07:07:15;;;;;;;16.65;3.88;;;11.60;99.90;;;;;;5072174;28;20491;-69
2022/11/09 07:09:41;;;;;;;22.35;4.28;;;11.70;99.90;;;;;;5073369;28;20025;-69
2022/11/09 07:12:07;;;;;;;14.95;4.05;;;11.70;99.90;;;;;;5072833;28;20532;-69
2022/11/09 07:14:33;;;;;;;22.65;4.22;;;11.70;99.90;;;;;;5072793;28;20105;-69
2022/11/09 07:16:58;;;;;;;18.75;4.72;;;11.70;99.90;;;;;;5062771;28;20035;-69
2022/11/09 07:19:24;;;;;;;20.38;3.88;;;11.70;99.90;;;;;;5056602;28;20405;-69
2022/11/09 07:21:49;;;;;;;12.73;3.17;;;11.70;99.90;;;;;;5038772;28;20377;-69
2022/11/09 07:24:15;;;;;;;20.25;4.75;;;11.70;99.90;;;;;;5056238;28;20539;-69
2022/11/09 07:26:40;;;;;;;22.80;3.72;;;11.60;99.90;;;;;;5056931;28;20391;-69
2022/11/09 07:29:06;;;;;;;19.25;3.33;;;11.60;99.90;;;;;;5056687;28;20025;-69
2022/11/09 07:31:32;;;;;;;40.40;5.30;;;11.60;99.90;;;;;;5057881;28;20525;-69
2022/11/09 07:34:00;;;;;;;19.92;3.58;;;11.70;99.90;;;;;;5076584;28;20066;-69
2022/11/09 07:36:25;;;;;;;26.60;3.97;;;11.70;99.90;;;;;;5075706;28;20035;-69
2022/11/09 07:38:51;;;;;;;26.08;4.22;;;11.70;99.90;;;;;;5076136;28;20024;-69
2022/11/09 07:41:16;;;;;;;33.75;5.28;;;11.70;99.90;;;;;;5076239;28;20032;-69
2022/11/09 07:43:42;;;;;;;22.77;4.10;;;11.60;99.90;;;;;;5075828;28;20580;-69
2022/11/09 07:46:07;;;;;;;21.25;4.13;;;11.70;99.90;;;;;;5076347;28;20055;-69
2022/11/09 07:48:33;;;;;;;14.65;2.90;;;11.70;99.90;;;;;;5076244;28;20029;-69
2022/11/09 07:51:00;;;;;;;31.70;4.60;;;11.80;99.90;;;;;;5075401;28;20025;-69
2022/11/09 07:53:26;;;;;;;20.58;4.30;;;11.80;99.90;;;;;;5075829;28;20557;-69
2022/11/09 07:56:00;;;;;;;22.67;3.70;;;11.80;99.90;;;;;;5076281;28;20048;-69
2022/11/09 07:58:26;;;;;;;23.95;4.55;;;11.80;99.90;;;;;;5075168;28;20024;-69
2022/11/09 08:00:52;;;;;;;27.02;5.43;;;11.90;99.90;;;;;;5075658;28;20476;-69
2022/11/09 08:03:18;;;;;;;29.80;4.95;;;12.00;99.90;;;;;;5075796;28;20030;-69
2022/11/09 08:05:44;;;;;;;29.00;4.32;;;12.10;99.90;;;;;;5075652;28;20029;-69
2022/11/09 08:08:11;;;;;;;27.65;4.93;;;12.10;99.90;;;;;;5075212;28;20032;-69
2022/11/09 08:10:37;;;;;;;26.05;4.95;;;12.10;99.90;;;;;;5075491;28;20432;-69
2022/11/09 08:13:05;;;;;;;23.15;4.22;;;12.00;99.90;;;;;;5075437;28;20052;-69
2022/11/09 08:15:32;;;;;;;14.85;4.78;;;11.90;99.90;;;;;;5075344;28;20035;-69
2022/11/09 08:18:02;;;;;;;20.40;3.90;;;12.00;99.90;;;;;;5075366;28;20035;-69
2022/11/09 08:20:30;;;;;;;25.45;3.70;;;11.90;99.90;;;;;;5075442;28;20475;-69
2022/11/09 08:22:56;;;;;;;24.08;4.05;;;11.90;99.90;;;;;;5074938;28;20032;-69
2022/11/09 08:25:21;;;;;;;25.85;3.08;;;11.80;99.90;;;;;;5075424;28;20036;-69
2022/11/09 08:27:47;;;;;;;26.33;5.35;;;11.70;99.90;;;;;;5075371;28;20150;-69
2022/11/09 08:30:16;;;;;;;24.38;3.92;;;11.60;99.90;;;;;;5075311;28;20495;-69
2022/11/09 08:32:43;;;;;;;23.48;3.97;;;11.60;99.90;;;;;;5075092;28;20025;-69
2022/11/09 08:35:11;;;;;;;28.95;4.97;;;11.60;99.90;;;;;;5075160;28;20130;-69
2022/11/09 08:37:37;;;;;;;40.55;6.25;;;11.70;99.90;;;;;;5074659;28;20024;-69
2022/11/09 08:40:04;;;;;;;23.83;3.70;;;11.70;99.90;;;;;;5074768;28;20502;-69
2022/11/09 08:42:29;;;;;;;22.13;4.28;;;11.80;99.90;;;;;;5074945;28;20028;-69
2022/11/09 08:44:55;;;;;;;17.50;4.32;;;11.70;99.90;;;;;;5075149;28;20024;-69
2022/11/09 08:47:20;;;;;;;17.02;4.38;;;11.80;99.90;;;;;;5074861;28;20031;-69
2022/11/09 08:49:47;;;;;;;24.98;4.97;;;11.80;99.90;;;;;;5074287;28;20039;-69
2022/11/09 08:52:12;;;;;;;21.45;4.05;;;11.90;99.90;;;;;;5074965;28;20036;-69
2022/11/09 08:54:38;;;;;;;19.92;4.13;;;12.00;99.90;;;;;;5074610;28;20096;-69
2022/11/09 08:57:04;;;;;;;21.98;3.78;;;12.20;99.90;;;;;;5056808;28;20048;-69
2022/11/09 08:59:30;;;;;;;21.13;4.88;;;12.30;99.90;;;;;;5073999;28;20028;-69
2022/11/09 09:01:55;;;;;;;34.40;4.60;;;12.40;99.90;;;;;;5074439;28;20037;-69
2022/11/09 09:04:21;;;;;;;19.52;4.43;;;12.50;99.90;;;;;;5074606;28;20146;-69
2022/11/09 09:06:46;;;;;;;28.80;4.15;;;12.50;99.90;;;;;;5074373;28;20112;-69
2022/11/09 09:09:12;;;;;;;21.77;5.00;;;12.60;99.90;;;;;;5074431;28;20031;-69
2022/11/09 09:11:37;;;;;;;18.00;3.85;;;12.70;99.90;;;;;;5074238;28;20027;-69
2022/11/09 09:14:03;;;;;;;22.10;3.97;;;12.60;99.90;;;;;;5073822;28;20028;-69
2022/11/09 09:16:29;;;;;;;28.00;6.47;;;12.60;99.90;;;;;;5074351;28;20021;-69
2022/11/09 09:18:54;;;;;;;13.70;4.25;;;12.70;99.90;;;;;;5074268;28;20020;-69
2022/11/09 09:21:20;;;;;;;25.88;4.05;;;12.80;99.90;;;;;;5074274;28;20021;-69
2022/11/09 09:23:48;;;;;;;26.98;5.18;;;12.90;99.90;;;;;;5074287;28;20036;-69
2022/11/09 09:26:15;;;;;;;36.20;4.53;;;13.00;99.90;;;;;;5073576;28;20021;-69
2022/11/09 09:28:40;;;;;;;34.92;6.43;;;13.00;99.90;;;;;;5074060;28;20032;-69
2022/11/09 09:31:06;;;;;;;20.02;4.53;;;13.00;99.90;;;;;;5073870;28;20037;-69
2022/11/09 09:33:32;;;;;;;32.25;5.30;;;13.10;99.90;;;;;;5073813;28;20016;-69
2022/11/09 09:35:58;;;;;;;34.40;6.35;;;13.10;99.90;;;;;;5074194;28;20086;-69
2022/11/09 09:38:25;;;;;;;19.98;4.43;;;13.00;99.90;;;;;;5073275;28;20021;-69
2022/11/09 09:41:01;;;;;;;28.17;4.60;;;13.00;99.90;;;;;;5073191;28;20066;-69
2022/11/09 09:43:42;;;;;;;22.23;4.18;;;13.00;99.90;;;;;;5073739;28;20484;-69
2022/11/09 09:46:20;;;;;;;27.80;5.47;;;13.00;99.90;;;;;;5074070;28;20024;-69
2022/11/09 09:48:52;;;;;;;26.65;4.88;;;13.00;99.90;;;;;;5073841;28;20027;-69
2022/11/09 09:51:44;;;;;;;16.23;3.63;;;12.90;99.90;;;;;;5073126;28;20416;-69
2022/11/09 09:54:23;;;;;;;26.92;4.68;;;13.00;99.90;;;;;;5073634;28;20537;-69
2022/11/09 09:56:52;;;;;;;23.33;3.80;;;13.10;99.90;;;;;;5073948;28;20021;-69
2022/11/09 09:59:32;;;;;;;25.20;4.22;;;13.10;99.90;;;;;;5072822;28;20017;-69
2022/11/09 10:01:58;;;;;;;23.85;4.97;;;13.10;99.90;;;;;;5073499;28;20479;-69
2022/11/09 10:04:34;;;;;;;18.55;4.45;;;13.20;99.90;;;;;;5073513;28;20078;-69
2022/11/09 10:07:22;;;;;;;20.88;4.50;;;13.30;99.90;;;;;;5073558;28;20024;-69
2022/11/09 10:10:25;;;;;;;20.10;4.70;;;13.30;99.90;;;;;;5073064;28;20107;-69
2022/11/09 10:12:54;;;;;;;21.95;5.22;;;13.30;99.90;;;;;;5073420;28;20035;-69
2022/11/09 10:15:46;;;;;;;14.95;4.20;;;13.40;99.90;;;;;;5073687;28;20487;-69
2022/11/09 10:18:40;;;;;;;24.38;5.50;;;13.40;99.90;;;;;;5060345;28;20040;-69
2022/11/09 10:21:29;;;;;;;26.25;3.60;;;13.40;99.90;;;;;;5073209;28;20028;-69
2022/11/09 10:24:24;;;;;;;23.48;4.30;;;13.40;99.90;;;;;;5072807;28;20024;-69
2022/11/09 10:26:53;;;;;;;21.63;4.50;;;13.40;99.90;;;;;;5073181;28;20025;-70
2022/11/09 10:29:21;;;;;;;26.20;4.45;;;13.30;99.90;;;;;;5073192;28;20020;-69
2022/11/09 10:31:49;;;;;;;21.00;4.15;;;13.40;99.90;;;;;;5072523;28;20067;-69
2022/11/09 10:34:37;;;;;;;28.65;4.80;;;13.40;99.90;;;;;;5073717;28;20028;-69
2022/11/09 10:37:18;;;;;;;22.42;4.18;;;13.40;99.90;;;;;;5073456;28;20013;-69
2022/11/09 10:40:06;;;;;;;16.50;3.53;;;13.40;99.90;;;;;;5072630;28;20475;-69
2022/11/09 10:42:32;;;;;;;18.02;3.83;;;13.40;99.90;;;;;;5055355;28;20053;-69
2022/11/09 10:45:06;;;;;;;19.25;4.00;;;13.40;99.90;;;;;;5072863;28;20032;-69
2022/11/09 10:47:49;;;;;;;17.80;4.05;;;13.30;99.90;;;;;;5073132;28;20488;-69
2022/11/09 10:50:30;;;;;;;21.08;3.90;;;13.30;99.90;;;;;;5074892;28;20491;-69
2022/11/09 10:53:19;;;;;;;26.33;5.65;;;13.30;99.90;;;;;;5076532;28;20025;-69
2022/11/09 10:56:08;;;;;;;22.70;4.07;;;13.30;99.90;;;;;;5077097;28;20094;-68
2022/11/09 10:58:36;;;;;;;24.55;4.22;;;13.40;99.90;;;;;;5077109;28;20533;-70
2022/11/09 11:01:04;;;;;;;23.50;4.43;;;13.40;99.90;;;;;;5076832;28;20365;-69
2022/11/09 11:03:34;;;;;;;21.05;3.95;;;13.50;99.90;;;;;;5077047;28;20078;-69
2022/11/09 11:06:04;;;;;;;26.15;5.13;;;13.40;99.90;;;;;;5076560;28;20021;-71
2022/11/09 11:08:36;;;;;;;29.65;4.88;;;13.50;99.90;;;;;;5076839;28;20021;-70
2022/11/09 11:11:13;;;;;;;26.88;4.00;;;13.40;99.90;;;;;;5076856;28;20468;-70
2022/11/09 11:13:39;;;;;;;24.23;4.53;;;13.40;99.90;;;;;;5076855;28;20476;-70
2022/11/09 11:16:27;;;;;;;22.02;4.45;;;13.40;99.90;;;;;;5076021;28;20062;-71
2022/11/09 11:18:54;;;;;;;25.52;5.57;;;13.50;99.90;;;;;;5076272;28;20475;-70
2022/11/09 11:21:22;;;;;;;22.23;4.05;;;13.50;99.90;;;;;;5076347;28;20031;-71
2022/11/09 11:24:16;;;;;;;26.10;3.90;;;13.40;99.90;;;;;;5076467;28;20027;-71
2022/11/09 11:27:04;;;;;;;26.55;4.25;;;13.50;99.90;;;;;;5056487;28;20099;-70
2022/11/09 11:30:09;;;;;;;20.08;3.47;;;13.50;99.90;;;;;;5056260;28;20479;-71
2022/11/09 11:32:35;;;;;;;21.58;3.67;;;13.40;99.90;;;;;;5050025;28;20036;-71
2022/11/09 11:35:03;;;;;;;14.05;3.70;;;13.50;99.90;;;;;;5076467;28;20357;-71
2022/11/09 11:38:01;;;;;;;26.13;3.90;;;13.50;99.90;;;;;;5076321;28;20039;-70
2022/11/09 11:40:34;;;;;;;21.30;4.53;;;13.50;99.90;;;;;;5075389;28;20025;-70
2022/11/09 11:43:27;;;;;;;20.02;4.63;;;13.50;99.90;;;;;;5076148;28;20043;-69
2022/11/09 11:46:16;;;;;;;32.67;5.90;;;13.50;99.90;;;;;;5076372;28;20024;-70
2022/11/09 11:48:54;;;;;;;31.20;4.32;;;13.50;99.90;;;;;;5075904;28;20030;-69
2022/11/09 11:51:35;;;;;;;25.23;4.80;;;13.50;99.90;;;;;;5075889;28;20064;-69
2022/11/09 11:54:12;;;;;;;23.98;5.03;;;13.50;99.90;;;;;;5075880;28;20566;-69
2022/11/09 11:56:54;;;;;;;24.17;4.20;;;13.50;99.90;;;;;;5076117;28;20028;-69
2022/11/09 11:59:30;;;;;;;26.50;4.20;;;13.50;99.90;;;;;;5075744;28;20013;-69
2022/11/09 12:02:35;;;;;;;31.73;4.75;;;13.50;99.90;;;;;;5074496;28;20464;-68
2022/11/09 12:05:19;;;;;;;30.02;5.55;;;13.50;99.90;;;;;;5075995;28;20468;-69
2022/11/09 12:08:08;;;;;;;20.65;4.07;;;13.50;99.90;;;;;;5075627;28;20036;-69
2022/11/09 12:11:16;;;;;;;22.05;3.67;;;13.50;99.90;;;;;;5026884;28;20076;-68
2022/11/09 12:14:06;;;;;;;21.40;4.30;;;13.40;99.90;;;;;;5076096;28;20103;-69
2022/11/09 12:16:48;;;;;;;23.15;4.47;;;13.50;99.90;;;;;;5075199;28;20117;-69
2022/11/09 12:19:31;;;;;;;22.60;4.10;;;13.60;99.90;;;;;;5075746;28;20021;-69
2022/11/09 12:22:16;;;;;;;27.45;5.05;;;13.60;99.90;;;;;;5075437;28;20029;-69
2022/11/09 12:25:03;;;;;;;20.52;4.90;;;13.50;99.90;;;;;;5075052;28;20029;-68
2022/11/09 12:27:35;;;;;;;20.20;3.17;;;13.60;99.90;;;;;;5075250;28;20502;-69
2022/11/09 12:30:11;;;;;;;23.98;4.97;;;13.60;99.90;;;;;;5075238;28;20424;-69
2022/11/09 12:33:01;;;;;;;21.60;3.90;;;13.50;99.90;;;;;;5075461;28;20027;-69
2022/11/09 12:35:32;;;;;;;37.55;4.90;;;13.60;99.90;;;;;;5075165;28;20028;-69
2022/11/09 12:38:18;;;;;;;26.67;4.18;;;13.50;99.90;;;;;;5075543;28;20054;-68
2022/11/09 12:40:53;;;;;;;25.02;4.80;;;13.50;99.90;;;;;;5074138;28;20029;-69
2022/11/09 12:43:50;;;;;;;22.45;4.35;;;13.40;99.90;;;;;;5057686;28;20028;-69
2022/11/09 12:46:21;;;;;;;31.23;4.10;;;13.40;99.90;;;;;;5074951;28;20079;-69
2022/11/09 12:48:47;;;;;;;20.95;3.45;;;13.40;99.90;;;;;;5074988;28;20032;-69
2022/11/09 12:51:14;;;;;;;27.10;3.60;;;13.30;99.90;;;;;;5074716;28;20472;-69